Time;durP1;ratioP1;P1;durP2;ratioP2;P2;SDS_P1;SDS_P2;PMS_P1;PMS_P2;Temp;Humidity;BMP_temperature;BMP_pressure;BME280_temperature;BME280_humidity;BME280_pressure;Samples;Min_cycle;Max_cycle;Signal;HPM_P1;HPM_P2
2022/05/31 00:00:07;;;;;;;4.25;1.92;;;;;;;;;;4938580;29;20039;-85
2022/05/31 00:02:33;;;;;;;5.63;2.15;;;;;;;;;;4938183;29;20049;-84
2022/05/31 00:04:59;;;;;;;3.38;1.33;;;;;;;;;;4938488;29;20051;-85
2022/05/31 00:07:25;;;;;;;3.75;1.55;;;;;;;;;;4938589;29;20463;-85
2022/05/31 00:09:51;;;;;;;3.63;1.27;;;;;;;;;;4938459;29;20122;-85
2022/05/31 00:12:18;;;;;;;3.20;1.38;;;;;;;;;;4938248;29;20114;-85
2022/05/31 00:14:44;;;;;;;5.50;2.20;;;;;;;;;;4938321;28;20039;-85
2022/05/31 00:17:10;;;;;;;4.40;2.42;;;;;;;;;;4938049;29;20503;-85
2022/05/31 00:19:36;;;;;;;4.25;2.28;;;;;;;;;;4955422;29;20075;-86
2022/05/31 00:22:07;;;;;;;4.38;2.15;;;;;;;;;;4938181;29;20051;-85
2022/05/31 00:24:34;;;;;;;5.63;2.55;;;;;;;;;;4938312;29;20046;-84
2022/05/31 00:26:59;;;;;;;6.20;3.00;;;;;;;;;;4937805;29;20070;-85
2022/05/31 00:29:26;;;;;;;6.35;2.80;;;;;;;;;;4938097;29;20406;-85
2022/05/31 00:31:52;;;;;;;7.30;2.95;;;;;;;;;;4921963;29;20046;-84
2022/05/31 00:34:19;;;;;;;4.80;2.60;;;;;;;;;;4938268;29;20047;-85
2022/05/31 00:36:46;;;;;;;5.43;2.65;;;;;;;;;;4921897;29;20042;-85
2022/05/31 00:39:12;;;;;;;5.50;2.80;;;;;;;;;;4937993;29;20154;-84
2022/05/31 00:41:39;;;;;;;5.75;2.67;;;;;;;;;;4937823;29;20046;-85
2022/05/31 00:44:05;;;;;;;5.60;2.90;;;;;;;;;;4955107;29;20051;-84
2022/05/31 00:46:39;;;;;;;4.88;2.97;;;;;;;;;;4937476;29;20086;-85
2022/05/31 00:49:06;;;;;;;5.85;2.75;;;;;;;;;;4955108;29;20074;-84
2022/05/31 00:51:44;;;;;;;5.53;2.67;;;;;;;;;;4937571;29;20050;-84
2022/05/31 00:54:12;;;;;;;5.80;3.03;;;;;;;;;;4937724;29;20044;-84
2022/05/31 00:56:38;;;;;;;6.57;2.95;;;;;;;;;;4954791;28;20403;-84
2022/05/31 00:59:06;;;;;;;6.25;2.90;;;;;;;;;;4954981;29;20047;-85
2022/05/31 01:01:34;;;;;;;5.07;2.85;;;;;;;;;;4937514;29;20049;-86
2022/05/31 01:04:00;;;;;;;6.28;3.08;;;;;;;;;;4937890;29;20051;-85
2022/05/31 01:06:27;;;;;;;5.68;3.20;;;;;;;;;;4937360;29;20126;-85
2022/05/31 01:08:55;;;;;;;6.32;3.40;;;;;;;;;;4937758;29;20039;-85
2022/05/31 01:11:22;;;;;;;4.90;2.90;;;;;;;;;;4937640;29;20379;-86
2022/05/31 01:13:48;;;;;;;5.70;3.33;;;;;;;;;;4957059;28;20039;-85
2022/05/31 01:16:15;;;;;;;6.80;3.30;;;;;;;;;;4943858;29;20050;-85
2022/05/31 01:18:41;;;;;;;7.75;3.85;;;;;;;;;;4927975;29;20079;-85
2022/05/31 01:21:07;;;;;;;8.18;3.45;;;;;;;;;;4943673;29;20085;-85
2022/05/31 01:23:37;;;;;;;6.25;3.30;;;;;;;;;;4943881;29;20043;-85
2022/05/31 01:26:09;;;;;;;5.20;3.05;;;;;;;;;;4943854;28;20130;-85
2022/05/31 01:28:42;;;;;;;4.93;3.25;;;;;;;;;;4961280;28;20039;-85
2022/05/31 01:31:27;;;;;;;5.13;3.08;;;;;;;;;;4944133;28;20382;-85
2022/05/31 01:33:52;;;;;;;5.72;3.28;;;;;;;;;;4943943;29;20035;-85
2022/05/31 01:36:24;;;;;;;6.65;3.35;;;;;;;;;;4943431;29;20057;-85
2022/05/31 01:39:17;;;;;;;5.78;3.60;;;;;;;;;;4944062;29;20122;-85
2022/05/31 01:41:49;;;;;;;5.57;3.35;;;;;;;;;;4929207;29;20118;-85
2022/05/31 01:44:16;;;;;;;7.20;3.88;;;;;;;;;;4943625;29;20043;-84
2022/05/31 01:46:43;;;;;;;5.30;3.38;;;;;;;;;;4939927;29;20060;-85
2022/05/31 01:49:12;;;;;;;6.85;3.88;;;;;;;;;;4941912;29;20087;-85
2022/05/31 01:51:40;;;;;;;6.60;3.72;;;;;;;;;;4940352;29;20090;-85
2022/05/31 01:54:07;;;;;;;6.32;3.65;;;;;;;;;;4940514;29;20059;-85
2022/05/31 01:56:33;;;;;;;6.00;3.70;;;;;;;;;;4940091;29;20048;-85
2022/05/31 01:59:00;;;;;;;8.52;4.15;;;;;;;;;;4940546;29;20491;-84
2022/05/31 02:01:27;;;;;;;6.55;3.92;;;;;;;;;;4940535;29;20083;-85
2022/05/31 02:03:53;;;;;;;6.57;3.80;;;;;;;;;;4940325;29;20043;-85
2022/05/31 02:06:39;;;;;;;6.35;3.90;;;;;;;;;;4924158;29;20191;-84
2022/05/31 02:09:06;;;;;;;7.60;3.67;;;;;;;;;;4940316;29;20047;-84
2022/05/31 02:11:33;;;;;;;6.70;3.67;;;;;;;;;;4940367;29;20595;-84
2022/05/31 02:13:59;;;;;;;5.80;4.15;;;;;;;;;;4940210;29;20043;-85
2022/05/31 02:16:25;;;;;;;8.35;3.67;;;;;;;;;;4941476;29;20054;-84
2022/05/31 02:21:36;;;;;;;5.93;3.70;;;;;;;;;;4941662;29;20043;-85
2022/05/31 02:24:03;;;;;;;6.40;3.90;;;;;;;;;;4939933;29;20054;-85
2022/05/31 02:26:30;;;;;;;6.22;3.63;;;;;;;;;;4937411;29;20602;-84
2022/05/31 02:28:55;;;;;;;7.95;3.75;;;;;;;;;;4936961;29;20043;-85
2022/05/31 02:31:21;;;;;;;6.20;3.45;;;;;;;;;;4936981;29;20043;-85
2022/05/31 02:33:47;;;;;;;6.30;3.58;;;;;;;;;;4936964;29;20048;-85
2022/05/31 02:36:13;;;;;;;5.47;3.70;;;;;;;;;;4936873;29;20039;-85
2022/05/31 02:38:40;;;;;;;6.32;3.53;;;;;;;;;;4920911;29;20059;-84
2022/05/31 02:41:07;;;;;;;7.03;3.60;;;;;;;;;;4936955;29;20504;-84
2022/05/31 02:43:33;;;;;;;5.38;3.63;;;;;;;;;;4936585;29;20043;-84
2022/05/31 02:46:03;;;;;;;6.85;4.03;;;;;;;;;;4936488;29;20058;-84
2022/05/31 02:48:29;;;;;;;6.88;4.55;;;;;;;;;;4936539;29;20052;-85
2022/05/31 02:50:55;;;;;;;7.78;4.20;;;;;;;;;;4937004;29;20044;-84
2022/05/31 02:53:21;;;;;;;7.22;4.20;;;;;;;;;;4936726;29;20079;-84
2022/05/31 02:55:47;;;;;;;7.88;4.60;;;;;;;;;;4936924;29;20052;-84
2022/05/31 02:58:13;;;;;;;6.63;4.38;;;;;;;;;;4937918;29;20055;-85
2022/05/31 03:00:39;;;;;;;6.85;4.38;;;;;;;;;;4936796;29;20402;-85
2022/05/31 03:03:06;;;;;;;7.30;4.47;;;;;;;;;;4936298;29;20052;-84
2022/05/31 03:05:32;;;;;;;6.88;4.72;;;;;;;;;;4937484;29;20055;-84
2022/05/31 03:07:58;;;;;;;7.40;4.40;;;;;;;;;;4936247;29;20133;-85
2022/05/31 03:10:27;;;;;;;6.57;3.97;;;;;;;;;;4936376;29;20035;-84
2022/05/31 03:12:55;;;;;;;5.07;3.42;;;;;;;;;;4936104;29;20044;-85
2022/05/31 03:15:22;;;;;;;8.82;4.00;;;;;;;;;;4936529;29;20095;-85
2022/05/31 03:17:54;;;;;;;8.15;4.15;;;;;;;;;;4936211;29;20395;-84
2022/05/31 03:20:22;;;;;;;7.05;3.92;;;;;;;;;;4936525;29;20044;-85
2022/05/31 03:23:02;;;;;;;6.60;3.88;;;;;;;;;;4920473;29;20328;-85
2022/05/31 03:25:28;;;;;;;7.90;4.00;;;;;;;;;;4935927;29;20083;-84
2022/05/31 03:27:57;;;;;;;7.30;3.97;;;;;;;;;;4936017;29;20048;-85
2022/05/31 03:30:23;;;;;;;6.80;3.78;;;;;;;;;;4936083;29;20051;-85
2022/05/31 03:32:50;;;;;;;5.85;3.67;;;;;;;;;;4935993;29;20406;-85
2022/05/31 03:35:16;;;;;;;6.55;4.10;;;;;;;;;;4936169;29;20127;-86
2022/05/31 03:37:42;;;;;;;6.55;4.22;;;;;;;;;;4935266;29;20070;-85
2022/05/31 03:40:08;;;;;;;6.60;4.10;;;;;;;;;;4937324;29;20040;-85
2022/05/31 03:42:34;;;;;;;6.55;3.67;;;;;;;;;;4937035;29;20482;-85
2022/05/31 03:45:00;;;;;;;6.70;3.72;;;;;;;;;;4936927;29;20561;-85
2022/05/31 03:47:26;;;;;;;6.22;4.03;;;;;;;;;;4938866;29;20598;-85
2022/05/31 03:49:52;;;;;;;6.22;4.00;;;;;;;;;;4938861;29;20126;-85
2022/05/31 03:52:19;;;;;;;6.80;4.28;;;;;;;;;;4938773;29;20475;-85
2022/05/31 03:54:45;;;;;;;6.65;3.95;;;;;;;;;;4938410;28;20478;-86
2022/05/31 03:57:15;;;;;;;7.05;4.20;;;;;;;;;;4938642;29;20035;-85
2022/05/31 03:59:41;;;;;;;6.32;4.10;;;;;;;;;;4955805;28;20054;-84
2022/05/31 04:02:08;;;;;;;6.95;4.63;;;;;;;;;;4956023;29;20046;-85
2022/05/31 04:04:34;;;;;;;6.68;4.45;;;;;;;;;;4938332;29;20590;-85
2022/05/31 04:07:00;;;;;;;7.63;4.15;;;;;;;;;;4922599;29;20047;-85
2022/05/31 04:09:26;;;;;;;7.88;4.45;;;;;;;;;;4955680;29;20074;-85
2022/05/31 04:11:56;;;;;;;7.88;4.18;;;;;;;;;;4922498;29;20458;-85
2022/05/31 04:14:22;;;;;;;6.45;4.47;;;;;;;;;;4955423;29;20043;-84
2022/05/31 04:16:48;;;;;;;6.97;4.90;;;;;;;;;;4938262;29;20541;-84
2022/05/31 04:19:14;;;;;;;7.00;5.00;;;;;;;;;;4938122;29;20417;-85
2022/05/31 04:21:40;;;;;;;7.95;5.20;;;;;;;;;;4922487;29;20053;-85
2022/05/31 04:24:09;;;;;;;7.90;5.10;;;;;;;;;;4955353;29;20047;-85
2022/05/31 04:26:41;;;;;;;6.88;5.05;;;;;;;;;;4937880;29;20082;-85
2022/05/31 04:29:07;;;;;;;7.57;4.93;;;;;;;;;;4922182;29;20475;-86
2022/05/31 04:31:33;;;;;;;8.15;4.95;;;;;;;;;;4938037;29;20050;-86
2022/05/31 04:33:59;;;;;;;7.63;4.85;;;;;;;;;;4937827;29;20391;-85
2022/05/31 04:36:25;;;;;;;7.53;4.97;;;;;;;;;;4938136;29;20054;-85
2022/05/31 04:38:51;;;;;;;7.20;5.03;;;;;;;;;;4937683;29;20507;-85
2022/05/31 04:41:21;;;;;;;9.52;5.50;;;;;;;;;;4937948;29;20226;-85
2022/05/31 04:43:48;;;;;;;9.00;5.82;;;;;;;;;;4937619;29;20054;-85
2022/05/31 04:46:18;;;;;;;9.38;6.78;;;;;;;;;;4937585;29;20062;-85
2022/05/31 04:48:45;;;;;;;10.75;7.45;;;;;;;;;;4954060;28;20051;-85
2022/05/31 04:51:11;;;;;;;11.95;6.75;;;;;;;;;;4937918;29;20043;-84
2022/05/31 04:53:38;;;;;;;12.65;7.40;;;;;;;;;;4921797;29;20403;-84
2022/05/31 04:56:05;;;;;;;12.00;6.95;;;;;;;;;;4921776;29;20043;-85
2022/05/31 04:58:31;;;;;;;10.70;7.38;;;;;;;;;;4937616;29;20105;-85
2022/05/31 05:00:57;;;;;;;11.98;7.18;;;;;;;;;;4937629;29;20490;-85
2022/05/31 05:03:23;;;;;;;10.35;7.07;;;;;;;;;;4937441;29;20394;-85
2022/05/31 05:05:49;;;;;;;10.43;7.40;;;;;;;;;;4937484;29;20039;-85
2022/05/31 05:08:15;;;;;;;10.48;7.30;;;;;;;;;;4937487;29;20372;-84
2022/05/31 05:10:45;;;;;;;9.30;7.07;;;;;;;;;;4937377;29;20047;-84
2022/05/31 05:13:11;;;;;;;12.32;8.25;;;;;;;;;;4937703;29;20118;-84
2022/05/31 05:15:41;;;;;;;11.98;7.90;;;;;;;;;;4937282;29;20079;-86
2022/05/31 05:18:07;;;;;;;10.77;7.32;;;;;;;;;;4937441;29;20079;-85
2022/05/31 05:20:35;;;;;;;11.23;7.50;;;;;;;;;;4937426;29;20043;-85
2022/05/31 05:23:03;;;;;;;10.65;7.72;;;;;;;;;;4937631;29;20051;-85
2022/05/31 05:25:29;;;;;;;9.50;7.95;;;;;;;;;;4937098;29;20043;-85
2022/05/31 05:27:55;;;;;;;9.63;7.43;;;;;;;;;;4937420;29;20118;-85
2022/05/31 05:30:39;;;;;;;10.68;7.43;;;;;;;;;;4937457;29;20090;-85
2022/05/31 05:33:05;;;;;;;10.93;6.85;;;;;;;;;;4954829;29;20094;-85
2022/05/31 05:35:31;;;;;;;10.68;7.45;;;;;;;;;;4921278;29;20086;-84
2022/05/31 05:37:58;;;;;;;9.70;7.50;;;;;;;;;;4937569;29;20083;-85
2022/05/31 05:40:24;;;;;;;11.50;7.75;;;;;;;;;;4954409;29;20122;-85
2022/05/31 05:42:50;;;;;;;9.07;6.80;;;;;;;;;;4937605;29;20391;-85
2022/05/31 05:45:18;;;;;;;12.90;7.05;;;;;;;;;;4954131;28;20095;-85
2022/05/31 05:47:44;;;;;;;9.52;6.80;;;;;;;;;;4937350;29;20046;-85
2022/05/31 05:50:10;;;;;;;11.02;7.80;;;;;;;;;;4921384;29;20043;-85
2022/05/31 05:52:36;;;;;;;9.48;7.13;;;;;;;;;;4937246;29;20094;-84
2022/05/31 05:55:02;;;;;;;11.82;7.80;;;;;;;;;;4936995;29;20039;-84
2022/05/31 05:57:29;;;;;;;12.07;7.40;;;;;;;;;;4937283;29;20043;-84
2022/05/31 05:59:55;;;;;;;10.68;7.43;;;;;;;;;;4937851;29;20043;-84
2022/05/31 06:02:28;;;;;;;10.98;7.82;;;;;;;;;;4940758;29;20043;-84
2022/05/31 06:05:14;;;;;;;9.98;7.28;;;;;;;;;;4957755;28;20109;-84
2022/05/31 06:07:44;;;;;;;9.00;6.75;;;;;;;;;;4940787;29;20088;-84
2022/05/31 06:10:13;;;;;;;11.13;7.35;;;;;;;;;;4940429;29;20047;-86
2022/05/31 06:12:41;;;;;;;10.93;6.93;;;;;;;;;;4940630;29;20039;-85
2022/05/31 06:15:18;;;;;;;10.02;7.25;;;;;;;;;;4940297;29;20495;-84
2022/05/31 06:17:45;;;;;;;10.30;7.70;;;;;;;;;;4940511;29;20505;-84
2022/05/31 06:20:11;;;;;;;9.85;7.00;;;;;;;;;;4940247;29;20050;-85
2022/05/31 06:22:39;;;;;;;12.40;8.38;;;;;;;;;;4940653;29;20054;-84
2022/05/31 06:25:06;;;;;;;11.98;8.10;;;;;;;;;;4957234;28;20115;-84
2022/05/31 06:27:32;;;;;;;11.43;7.72;;;;;;;;;;4928167;29;20035;-84
2022/05/31 06:29:58;;;;;;;10.20;7.57;;;;;;;;;;4955654;29;20059;-83
2022/05/31 06:32:24;;;;;;;10.63;7.93;;;;;;;;;;4955671;29;20062;-83
2022/05/31 06:34:50;;;;;;;10.20;7.28;;;;;;;;;;4956623;28;20039;-84
2022/05/31 06:37:17;;;;;;;9.48;7.53;;;;;;;;;;4955676;29;20042;-83
2022/05/31 06:39:44;;;;;;;9.95;7.93;;;;;;;;;;4955690;29;20114;-84
2022/05/31 06:42:10;;;;;;;11.93;8.10;;;;;;;;;;4955623;28;20047;-85
2022/05/31 06:44:37;;;;;;;10.00;7.25;;;;;;;;;;4939257;28;20046;-83
2022/05/31 06:47:04;;;;;;;13.10;7.55;;;;;;;;;;4956606;29;20087;-83
2022/05/31 06:49:31;;;;;;;9.70;7.75;;;;;;;;;;4956656;29;20101;-84
2022/05/31 06:57:32;;;;;;;9.63;6.75;;;;;;;;;;4956908;28;20051;-83
2022/05/31 06:59:58;;;;;;;10.77;7.13;;;;;;;;;;4955043;29;20554;-84
2022/05/31 07:02:25;;;;;;;10.18;7.47;;;;;;;;;;4955575;28;20435;-84
2022/05/31 07:04:51;;;;;;;11.35;7.53;;;;;;;;;;4956478;28;20078;-84
2022/05/31 07:07:17;;;;;;;9.32;7.05;;;;;;;;;;4955105;28;20090;-83
2022/05/31 07:09:43;;;;;;;10.00;7.35;;;;;;;;;;4954720;29;20039;-84
2022/05/31 07:12:09;;;;;;;8.38;6.25;;;;;;;;;;4954454;28;20050;-84
2022/05/31 07:14:34;;;;;;;12.60;7.55;;;;;;;;;;4938876;29;20403;-84
2022/05/31 07:17:01;;;;;;;8.80;7.00;;;;;;;;;;4955096;28;20074;-84
2022/05/31 07:19:27;;;;;;;9.68;6.82;;;;;;;;;;4955070;28;20495;-84
2022/05/31 07:21:53;;;;;;;9.48;5.95;;;;;;;;;;4954722;29;20043;-84
2022/05/31 07:24:19;;;;;;;8.20;5.75;;;;;;;;;;4954931;29;20043;-84
2022/05/31 07:26:46;;;;;;;8.63;5.45;;;;;;;;;;4954633;28;20093;-84
2022/05/31 07:29:12;;;;;;;9.52;5.88;;;;;;;;;;4954658;29;20050;-84
2022/05/31 07:31:41;;;;;;;9.00;5.10;;;;;;;;;;4954506;28;20049;-83
2022/05/31 07:34:09;;;;;;;9.27;5.80;;;;;;;;;;4938735;29;20054;-84
2022/05/31 07:36:35;;;;;;;7.63;5.03;;;;;;;;;;4955666;28;20074;-85
2022/05/31 07:39:01;;;;;;;6.88;5.35;;;;;;;;;;4954639;28;20429;-84
2022/05/31 07:41:28;;;;;;;9.77;5.85;;;;;;;;;;4936944;29;20044;-84
2022/05/31 07:43:55;;;;;;;7.47;4.90;;;;;;;;;;4939004;29;20051;-83
2022/05/31 07:46:21;;;;;;;8.25;5.72;;;;;;;;;;4938381;29;20539;-85
2022/05/31 07:48:47;;;;;;;7.40;4.97;;;;;;;;;;4938827;29;20051;-85
2022/05/31 07:51:12;;;;;;;9.38;4.57;;;;;;;;;;4938812;29;20045;-85
2022/05/31 07:53:38;;;;;;;8.43;4.90;;;;;;;;;;4938700;29;20102;-86
2022/05/31 07:56:09;;;;;;;8.73;4.43;;;;;;;;;;4938758;29;20046;-85
2022/05/31 07:58:35;;;;;;;8.13;5.65;;;;;;;;;;4938720;29;20047;-85
2022/05/31 08:01:03;;;;;;;6.40;5.07;;;;;;;;;;4938378;29;20484;-85
2022/05/31 08:03:32;;;;;;;7.93;4.75;;;;;;;;;;4938803;29;20043;-85
2022/05/31 08:06:01;;;;;;;8.65;4.45;;;;;;;;;;4938119;29;20049;-85
2022/05/31 08:08:27;;;;;;;9.65;5.15;;;;;;;;;;4922770;29;20050;-85
2022/05/31 08:10:53;;;;;;;8.40;4.57;;;;;;;;;;4938450;29;20391;-85
2022/05/31 08:13:19;;;;;;;8.38;4.38;;;;;;;;;;4938634;29;20264;-85
2022/05/31 08:15:45;;;;;;;7.65;4.53;;;;;;;;;;4938336;29;20098;-85
2022/05/31 08:18:11;;;;;;;7.60;4.28;;;;;;;;;;4938447;29;20511;-86
2022/05/31 08:20:38;;;;;;;7.85;4.22;;;;;;;;;;4938143;29;20051;-84
2022/05/31 08:23:04;;;;;;;10.52;4.05;;;;;;;;;;4938199;29;20131;-84
2022/05/31 08:25:33;;;;;;;7.40;4.05;;;;;;;;;;4922062;29;20110;-82
2022/05/31 08:28:00;;;;;;;8.05;4.18;;;;;;;;;;4938390;29;20411;-82
2022/05/31 08:30:26;;;;;;;8.13;4.60;;;;;;;;;;4937926;29;20122;-84
2022/05/31 08:32:52;;;;;;;9.45;4.15;;;;;;;;;;4938099;29;20070;-83
2022/05/31 08:35:19;;;;;;;8.05;4.00;;;;;;;;;;4955283;28;20094;-83
2022/05/31 08:37:45;;;;;;;7.55;3.97;;;;;;;;;;4955272;29;20042;-83
2022/05/31 08:40:12;;;;;;;9.07;3.80;;;;;;;;;;4955429;29;20822;-83
2022/05/31 08:42:38;;;;;;;5.68;3.25;;;;;;;;;;4937736;29;20054;-82
2022/05/31 08:45:16;;;;;;;6.50;3.20;;;;;;;;;;4937576;28;20047;-83
2022/05/31 08:47:47;;;;;;;8.63;3.88;;;;;;;;;;4955068;29;20058;-82
2022/05/31 08:53:22;;;;;;;11.55;3.92;;;;;;;;;;4955289;29;20122;-83
2022/05/31 08:58:57;;;;;;;7.10;3.08;;;;;;;;;;4937631;29;20051;-83
2022/05/31 09:01:25;;;;;;;8.50;3.40;;;;;;;;;;4922017;29;20106;-83
2022/05/31 09:04:05;;;;;;;6.65;3.50;;;;;;;;;;4937831;29;20122;-83
2022/05/31 09:06:46;;;;;;;6.65;3.30;;;;;;;;;;4937419;29;20039;-83
2022/05/31 09:09:26;;;;;;;8.85;3.60;;;;;;;;;;4937652;29;20051;-83
2022/05/31 09:12:11;;;;;;;6.47;3.35;;;;;;;;;;4919016;28;20078;-83
2022/05/31 09:14:49;;;;;;;5.70;2.70;;;;;;;;;;4937552;28;20487;-83
2022/05/31 09:17:18;;;;;;;6.13;3.40;;;;;;;;;;4953761;29;20414;-82
2022/05/31 09:19:44;;;;;;;7.30;3.33;;;;;;;;;;4937859;29;20434;-83
2022/05/31 09:22:10;;;;;;;6.85;2.75;;;;;;;;;;4958253;28;20043;-83
2022/05/31 09:24:44;;;;;;;6.93;2.50;;;;;;;;;;4973919;28;20511;-83
2022/05/31 09:27:15;;;;;;;6.80;2.67;;;;;;;;;;4950235;29;20070;-83
2022/05/31 09:29:42;;;;;;;7.45;3.00;;;;;;;;;;4937775;29;20394;-83
2022/05/31 09:32:18;;;;;;;5.70;2.85;;;;;;;;;;4922210;28;20039;-83
2022/05/31 09:34:54;;;;;;;8.45;3.08;;;;;;;;;;4957336;28;20105;-83
2022/05/31 09:37:24;;;;;;;7.85;2.63;;;;;;;;;;4959301;28;20051;-83
2022/05/31 09:39:53;;;;;;;7.85;3.20;;;;;;;;;;4960579;28;20499;-83
2022/05/31 09:42:23;;;;;;;5.03;2.70;;;;;;;;;;4959162;28;20329;-83
2022/05/31 09:44:59;;;;;;;7.35;2.67;;;;;;;;;;4977495;28;20050;-82
2022/05/31 09:47:26;;;;;;;6.88;2.30;;;;;;;;;;4977597;28;20050;-83
2022/05/31 09:49:53;;;;;;;7.43;2.95;;;;;;;;;;4960195;28;20491;-82
2022/05/31 09:52:19;;;;;;;6.72;3.05;;;;;;;;;;4977627;28;20045;-82
2022/05/31 09:57:51;;;;;;;6.15;2.78;;;;;;;;;;4977151;28;20043;-83
2022/05/31 10:00:19;;;;;;;7.53;3.45;;;;;;;;;;4977589;28;20486;-83
2022/05/31 10:02:56;;;;;;;9.38;3.10;;;;;;;;;;4959905;28;20498;-86
2022/05/31 10:05:22;;;;;;;6.68;2.92;;;;;;;;;;4959834;28;20335;-83
2022/05/31 10:07:49;;;;;;;7.05;2.97;;;;;;;;;;4959760;28;20047;-83
2022/05/31 10:10:17;;;;;;;6.43;3.25;;;;;;;;;;4959742;28;20587;-83
2022/05/31 10:12:54;;;;;;;7.90;3.05;;;;;;;;;;4977097;28;20050;-83
2022/05/31 10:15:34;;;;;;;6.93;2.92;;;;;;;;;;4959640;28;20121;-83
2022/05/31 10:18:05;;;;;;;7.13;2.88;;;;;;;;;;4943359;28;20125;-83
2022/05/31 10:20:31;;;;;;;5.70;2.60;;;;;;;;;;4977023;28;20064;-83
2022/05/31 10:23:15;;;;;;;6.93;2.88;;;;;;;;;;4959485;28;20091;-83
2022/05/31 10:25:51;;;;;;;7.00;2.45;;;;;;;;;;4943530;28;20054;-83
2022/05/31 10:28:36;;;;;;;5.65;2.30;;;;;;;;;;4959574;28;20213;-84
2022/05/31 10:31:14;;;;;;;9.15;2.40;;;;;;;;;;4977111;28;20039;-83
2022/05/31 10:33:40;;;;;;;6.10;2.40;;;;;;;;;;4958117;28;20058;-83
2022/05/31 10:36:09;;;;;;;5.82;2.28;;;;;;;;;;4959293;28;20055;-82
2022/05/31 10:38:35;;;;;;;7.72;2.70;;;;;;;;;;4959094;28;20097;-83
2022/05/31 10:41:06;;;;;;;5.78;2.50;;;;;;;;;;4959487;28;20135;-83
2022/05/31 10:43:43;;;;;;;8.00;2.38;;;;;;;;;;4959282;28;20053;-83
2022/05/31 10:46:21;;;;;;;7.28;2.85;;;;;;;;;;4975292;28;20134;-83
2022/05/31 10:48:48;;;;;;;7.57;2.88;;;;;;;;;;4958995;28;20122;-83
2022/05/31 10:51:32;;;;;;;9.73;3.00;;;;;;;;;;4976402;28;20494;-83
2022/05/31 10:54:18;;;;;;;7.75;3.10;;;;;;;;;;4958840;28;20051;-83
2022/05/31 10:56:58;;;;;;;7.07;2.72;;;;;;;;;;4958711;28;20054;-83
2022/05/31 10:59:29;;;;;;;6.35;2.65;;;;;;;;;;4959099;28;20046;-84
2022/05/31 11:01:58;;;;;;;5.25;2.65;;;;;;;;;;4958819;28;20065;-83
2022/05/31 11:04:36;;;;;;;8.90;2.85;;;;;;;;;;4959182;28;20113;-83
2022/05/31 11:07:20;;;;;;;5.80;2.83;;;;;;;;;;4957537;28;20415;-83
2022/05/31 11:12:52;;;;;;;6.95;2.63;;;;;;;;;;4936558;29;20447;-83
2022/05/31 11:15:26;;;;;;;6.53;2.53;;;;;;;;;;4937461;29;20524;-82
2022/05/31 11:18:07;;;;;;;5.75;2.63;;;;;;;;;;4952923;29;20058;-83
2022/05/31 11:20:38;;;;;;;7.90;3.45;;;;;;;;;;4954799;28;20066;-83
2022/05/31 11:23:04;;;;;;;7.15;3.03;;;;;;;;;;4956291;29;20043;-83
2022/05/31 11:25:49;;;;;;;7.28;3.08;;;;;;;;;;4938636;29;20522;-82
2022/05/31 11:28:15;;;;;;;8.00;2.70;;;;;;;;;;4955931;29;20122;-83
2022/05/31 11:30:45;;;;;;;7.18;3.13;;;;;;;;;;4939273;29;20130;-83
2022/05/31 11:33:18;;;;;;;5.28;3.17;;;;;;;;;;4956075;29;20372;-83
2022/05/31 11:35:44;;;;;;;6.22;2.70;;;;;;;;;;4938935;29;20050;-82
2022/05/31 11:38:15;;;;;;;4.95;2.80;;;;;;;;;;4939050;29;20054;-83
2022/05/31 11:41:02;;;;;;;6.10;3.30;;;;;;;;;;4938945;29;20051;-83
2022/05/31 11:43:59;;;;;;;7.22;3.17;;;;;;;;;;4938919;29;20106;-83
2022/05/31 11:46:43;;;;;;;6.20;3.63;;;;;;;;;;4918333;29;20084;-83
2022/05/31 11:49:20;;;;;;;8.25;3.33;;;;;;;;;;4935473;29;20511;-83
2022/05/31 11:51:46;;;;;;;8.80;3.63;;;;;;;;;;4936731;29;20546;-84
2022/05/31 11:54:31;;;;;;;5.63;2.80;;;;;;;;;;4919504;29;20047;-83
2022/05/31 11:57:07;;;;;;;7.28;3.70;;;;;;;;;;4919964;29;20055;-83
2022/05/31 11:59:36;;;;;;;7.10;3.53;;;;;;;;;;4936452;29;20071;-83
2022/05/31 12:02:25;;;;;;;6.70;2.90;;;;;;;;;;4919441;29;20122;-81
2022/05/31 12:04:57;;;;;;;8.25;2.78;;;;;;;;;;4914253;29;20240;-81
2022/05/31 12:07:38;;;;;;;7.45;2.90;;;;;;;;;;4919465;29;20444;-81
2022/05/31 12:10:14;;;;;;;7.13;3.25;;;;;;;;;;4936722;29;20043;-82
2022/05/31 12:12:42;;;;;;;6.53;2.95;;;;;;;;;;4919282;29;20051;-81
2022/05/31 12:15:14;;;;;;;5.03;2.75;;;;;;;;;;4935352;29;20050;-81
2022/05/31 12:17:48;;;;;;;4.75;2.60;;;;;;;;;;4919150;29;20134;-82
2022/05/31 12:20:24;;;;;;;5.43;2.30;;;;;;;;;;4919651;29;20055;-82
2022/05/31 12:22:57;;;;;;;6.55;2.67;;;;;;;;;;4919141;29;20106;-81
2022/05/31 12:25:27;;;;;;;8.32;2.72;;;;;;;;;;4919209;29;20058;-81
2022/05/31 12:27:56;;;;;;;6.10;2.38;;;;;;;;;;4935092;29;20036;-81
2022/05/31 12:30:36;;;;;;;5.35;2.30;;;;;;;;;;4919195;29;20048;-82
2022/05/31 12:33:02;;;;;;;8.38;2.75;;;;;;;;;;4919018;29;20127;-81
2022/05/31 12:35:31;;;;;;;9.30;3.28;;;;;;;;;;4935093;29;20462;-80
2022/05/31 12:38:03;;;;;;;9.25;2.53;;;;;;;;;;4936172;29;20043;-81
2022/05/31 12:40:32;;;;;;;9.00;2.92;;;;;;;;;;4919143;29;20051;-81
2022/05/31 12:42:59;;;;;;;12.52;3.22;;;;;;;;;;4919033;29;20559;-82
2022/05/31 12:45:34;;;;;;;9.75;2.78;;;;;;;;;;4935725;29;20087;-82
2022/05/31 12:48:02;;;;;;;8.95;2.85;;;;;;;;;;4935774;29;20579;-81
2022/05/31 12:50:45;;;;;;;8.35;3.28;;;;;;;;;;4918824;29;20492;-82
2022/05/31 12:53:20;;;;;;;6.18;2.60;;;;;;;;;;4918915;29;20059;-81
2022/05/31 12:55:46;;;;;;;;;;;;;;;;;;4919510;29;20432;-81
2022/05/31 12:58:33;;;;;;;8.35;2.60;;;;;;;;;;4918594;29;20362;-81
2022/05/31 13:01:05;;;;;;;6.63;2.70;;;;;;;;;;4918868;29;20040;-82
2022/05/31 13:03:34;;;;;;;8.32;2.70;;;;;;;;;;4934351;29;20048;-82
2022/05/31 13:06:04;;;;;;;6.85;2.80;;;;;;;;;;4935839;29;20035;-82
2022/05/31 13:08:51;;;;;;;6.07;2.67;;;;;;;;;;4935560;29;20048;-82
2022/05/31 13:20:23;;;;;;;6.40;2.80;;;;;;;;;;4918321;29;20130;-81
2022/05/31 13:23:10;;;;;;;7.70;3.25;;;;;;;;;;4918631;29;20079;-82
2022/05/31 13:25:45;;;;;;;5.63;2.50;;;;;;;;;;4917974;29;20043;-81
2022/05/31 13:28:26;;;;;;;7.93;2.60;;;;;;;;;;4935748;29;20369;-82
2022/05/31 13:30:56;;;;;;;6.65;2.53;;;;;;;;;;4918411;29;20118;-82
2022/05/31 13:33:22;;;;;;;7.45;2.35;;;;;;;;;;4918875;29;20110;-82
2022/05/31 13:36:18;;;;;;;6.63;2.30;;;;;;;;;;4935456;29;20050;-82
2022/05/31 13:38:45;;;;;;;8.32;2.08;;;;;;;;;;4909971;29;20059;-82
2022/05/31 13:41:12;;;;;;;7.15;3.53;;;;;;;;;;4918311;29;20047;-82
2022/05/31 13:43:48;;;;;;;5.30;2.22;;;;;;;;;;4918053;29;20160;-82
2022/05/31 13:46:43;;;;;;;5.07;2.47;;;;;;;;;;4935165;29;20234;-82
2022/05/31 13:49:17;;;;;;;6.27;2.20;;;;;;;;;;4923086;29;20377;-81
2022/05/31 13:52:12;;;;;;;9.20;2.55;;;;;;;;;;4935535;29;20091;-82
2022/05/31 13:54:41;;;;;;;7.63;2.40;;;;;;;;;;4910338;29;20130;-81
2022/05/31 13:57:07;;;;;;;6.40;2.50;;;;;;;;;;4918312;29;20084;-82
2022/05/31 13:59:35;;;;;;;6.55;2.88;;;;;;;;;;4917992;29;20098;-82
2022/05/31 14:02:03;;;;;;;7.88;3.13;;;;;;;;;;4917164;29;20211;-82
2022/05/31 14:04:34;;;;;;;6.70;2.83;;;;;;;;;;4935134;29;20152;-82
2022/05/31 14:07:01;;;;;;;6.78;3.15;;;;;;;;;;4935484;29;20052;-81
2022/05/31 14:09:28;;;;;;;6.95;3.10;;;;;;;;;;4935066;29;20050;-82
2022/05/31 14:11:59;;;;;;;5.97;3.10;;;;;;;;;;4918075;29;20479;-82
2022/05/31 14:14:27;;;;;;;8.05;3.42;;;;;;;;;;4917905;29;20043;-81
2022/05/31 14:16:55;;;;;;;7.75;3.63;;;;;;;;;;4917952;29;20047;-82
2022/05/31 14:19:24;;;;;;;5.72;2.85;;;;;;;;;;4917789;29;20103;-81
2022/05/31 14:21:52;;;;;;;6.82;3.78;;;;;;;;;;4920289;29;20110;-82
2022/05/31 14:24:23;;;;;;;12.00;3.75;;;;;;;;;;4921083;29;20053;-82
2022/05/31 14:26:50;;;;;;;5.85;3.35;;;;;;;;;;4921228;29;20067;-82
2022/05/31 14:29:19;;;;;;;8.05;3.80;;;;;;;;;;4938366;29;20047;-82
2022/05/31 14:31:49;;;;;;;8.70;5.10;;;;;;;;;;4938551;29;20039;-82
2022/05/31 14:34:23;;;;;;;8.73;5.53;;;;;;;;;;4955475;28;20093;-82
2022/05/31 14:36:53;;;;;;;11.67;5.03;;;;;;;;;;4959508;28;20552;-82
2022/05/31 14:39:21;;;;;;;9.65;5.70;;;;;;;;;;4976536;28;20513;-82
2022/05/31 14:41:47;;;;;;;9.05;5.40;;;;;;;;;;4959423;28;20043;-82
2022/05/31 14:44:32;;;;;;;9.70;5.75;;;;;;;;;;4959139;28;20051;-82
2022/05/31 14:47:09;;;;;;;10.82;5.90;;;;;;;;;;4958110;28;20098;-82
2022/05/31 14:49:43;;;;;;;9.23;6.00;;;;;;;;;;4958788;28;20039;-81
2022/05/31 14:52:21;;;;;;;8.15;5.60;;;;;;;;;;4946523;28;20044;-81
2022/05/31 14:54:47;;;;;;;12.40;6.13;;;;;;;;;;4922355;28;20090;-82
2022/05/31 14:57:22;;;;;;;9.73;5.88;;;;;;;;;;4940027;29;20091;-82
2022/05/31 14:59:48;;;;;;;10.88;6.60;;;;;;;;;;4939720;29;20047;-82
2022/05/31 15:02:17;;;;;;;9.75;5.70;;;;;;;;;;4939663;29;20130;-82
2022/05/31 15:04:46;;;;;;;10.05;6.00;;;;;;;;;;4939645;28;20051;-82
2022/05/31 15:07:14;;;;;;;10.98;6.57;;;;;;;;;;4939649;29;20494;-81
2022/05/31 15:09:42;;;;;;;12.05;6.20;;;;;;;;;;4923565;29;20055;-81
2022/05/31 15:20:32;;;;;;;10.85;6.07;;;;;;;;;;4956746;29;20047;-82
2022/05/31 15:23:01;;;;;;;10.07;5.88;;;;;;;;;;4939428;29;20062;-82
2022/05/31 15:25:27;;;;;;;8.88;6.68;;;;;;;;;;4938802;28;20490;-81
2022/05/31 15:27:53;;;;;;;9.00;5.57;;;;;;;;;;4957443;28;20549;-82
2022/05/31 15:30:19;;;;;;;9.13;6.05;;;;;;;;;;4958287;28;20045;-82
2022/05/31 15:32:46;;;;;;;10.57;6.40;;;;;;;;;;4937686;28;20388;-82